Sea Voyager — V7QU2 — position and weather

sailwx.info

Track history (hours):
 
Tides and Currents Weather Stations Pressure Air Temp Water Temp Dewpoint Dewpoint Depression Visibility Wind Speed Wind Dir Waves Ship Positions

Sea Voyager

Last reported at 2017-Jan-13 10:21 UTC. Time now 2017-Jan-20 07:54 UTC.
Position N 38°22' E 121°31'.

Length 243 m; draft 11.7 m.

Type: Ship (hazmat cat A). MMSI: 538003439.

Date/timePositionNaut miles runAvg speedWind from/ knotsBaromVisibWave heightAir tempDewpointWater temp
2017-Jan-13 10:21N 38°22' E 121°31'1012.1
2017-Jan-13 09:31N 38°30' E 121°39'1111.8
2017-Jan-13 08:33N 38°39' E 121°47'1211.9
2017-Jan-13 07:33N 38°50' E 121°54'7 0.3
2017-Jan-12 06:33N 38°55' E 121°59'2 0.9
2017-Jan-12 04:33N 38°55' E 122°01'6 6.5
2017-Jan-12 03:33N 38°49' E 122°03'1110.3
2017-Jan-12 02:29N 38°38' E 122°07'  
2017-Jan-03 12:25N 37°43' E 122°12'1113.2
2017-Jan-03 11:33N 37°43' E 121°58'1413.9
2017-Jan-03 10:33N 37°44' E 121°40'  
Track history (hours):
 
Tides and Currents Weather Stations Pressure Air Temp Water Temp Dewpoint Dewpoint Depression Visibility Wind Speed Wind Dir Waves Ship Positions

Sea Voyager

Last reported at 2017-Jan-13 10:21 UTC. Time now 2017-Jan-20 07:54 UTC.
Position N 38°22' E 121°31'.

Length 243 m; draft 11.7 m.

Type: Ship (hazmat cat A). MMSI: 538003439.

Date/timePositionNaut miles runAvg speedWind from/ knotsBaromVisibWave heightAir tempDewpointWater temp
2017-Jan-13 10:21N 38°22' E 121°31'1012.1
2017-Jan-13 09:31N 38°30' E 121°39'1111.8
2017-Jan-13 08:33N 38°39' E 121°47'1211.9
2017-Jan-13 07:33N 38°50' E 121°54'7 0.3
2017-Jan-12 06:33N 38°55' E 121°59'2 0.9
2017-Jan-12 04:33N 38°55' E 122°01'6 6.5
2017-Jan-12 03:33N 38°49' E 122°03'1110.3
2017-Jan-12 02:29N 38°38' E 122°07'  
2017-Jan-03 12:25N 37°43' E 122°12'1113.2
2017-Jan-03 11:33N 37°43' E 121°58'1413.9
2017-Jan-03 10:33N 37°44' E 121°40'  

Dump ship's entire track history